Terminal Aerodrome Forecast
Issued by NWS Charleston, WV

Current Version | Previous Version | Graphics & Text | Print | Product List | Glossary On
Versions: 1 2 3 4 5 6 7 8 9 10 11 12 13 14 15 16 17 18 19 20 21 22 23 24 25 26 27
513
FTUS41 KRLX 161136 AAA
TAFBKW
TAF AMD
KBKW 161136Z 1612/1712 28010KT P6SM BKN035
     FM161500 28015G23KT P6SM SCT025
     FM162300 32009KT P6SM SCT035
     FM170800 24004KT P6SM SCT035
     FM171000 19004KT P6SM SCT200=

USA.gov is the U.S. government's official web portal to all federal, state and local government web resources and services.